createdAt,value
2023-05-02T00:00:04.961Z,7.07
2023-05-02T00:02:34.134Z,6.53
2023-05-02T00:05:02.852Z,6.20
2023-05-02T00:07:31.502Z,5.87
2023-05-02T00:10:02.824Z,5.40
2023-05-02T00:12:31.716Z,11.37
2023-05-02T00:15:01.029Z,7.80
2023-05-02T00:17:29.682Z,6.23
2023-05-02T00:19:58.537Z,6.23
2023-05-02T00:22:28.307Z,6.43
2023-05-02T00:24:58.441Z,7.90
2023-05-02T00:27:28.425Z,6.80
2023-05-02T00:29:57.588Z,6.50
2023-05-02T00:32:26.837Z,5.80
2023-05-02T00:34:55.682Z,7.80
2023-05-02T00:37:27.315Z,11.23
2023-05-02T00:39:55.993Z,7.10
2023-05-02T00:42:24.574Z,7.30
2023-05-02T00:44:54.546Z,8.20
2023-05-02T00:47:23.232Z,5.30
2023-05-02T00:49:51.871Z,10.37
2023-05-02T00:52:20.838Z,6.47
2023-05-02T00:54:49.826Z,7.20
2023-05-02T00:57:18.430Z,6.73
2023-05-02T00:59:47.257Z,5.70
2023-05-02T01:02:27.275Z,5.70
2023-05-02T01:05:02.155Z,6.33
2023-05-02T01:07:42.256Z,6.90
2023-05-02T01:10:23.092Z,9.13
2023-05-02T01:12:57.149Z,5.50
2023-05-02T01:15:26.426Z,6.73
2023-05-02T01:17:57.544Z,6.50
2023-05-02T01:20:28.823Z,6.87
2023-05-02T01:23:01.657Z,10.20
2023-05-02T01:25:34.926Z,6.20
2023-05-02T01:28:10.350Z,6.40
2023-05-02T01:30:43.380Z,6.20
2023-05-02T01:33:13.319Z,7.90
2023-05-02T01:35:43.978Z,6.07
2023-05-02T01:38:15.661Z,10.97
2023-05-02T01:40:46.080Z,7.10
2023-05-02T01:43:15.753Z,7.47
2023-05-02T01:45:47.022Z,6.77
2023-05-02T01:48:16.702Z,6.63
2023-05-02T01:50:46.250Z,7.60
2023-05-02T01:53:15.366Z,5.60
2023-05-02T01:55:45.950Z,6.33
2023-05-02T01:58:15.325Z,6.73
2023-05-02T02:00:46.437Z,7.70
2023-05-02T02:03:16.179Z,7.33
2023-05-02T02:05:45.038Z,6.60
2023-05-02T02:08:13.639Z,10.97
2023-05-02T02:10:44.805Z,8.27
2023-05-02T02:13:19.156Z,8.50
2023-05-02T02:15:50.439Z,6.20
2023-05-02T02:18:22.172Z,7.93
2023-05-02T02:20:51.871Z,5.67
2023-05-02T02:23:23.153Z,5.77
2023-05-02T02:25:52.921Z,8.37
2023-05-02T02:28:21.636Z,9.37
2023-05-02T02:30:51.653Z,5.50
2023-05-02T02:33:21.134Z,6.00
2023-05-02T02:36:06.182Z,7.00
2023-05-02T02:38:39.917Z,6.47
2023-05-02T02:41:14.861Z,7.53
2023-05-02T02:43:52.012Z,5.77
2023-05-02T02:46:31.656Z,5.70
2023-05-02T02:49:13.804Z,5.87
2023-05-02T02:51:48.574Z,9.40
2023-05-02T02:54:27.092Z,6.80
2023-05-02T02:57:01.752Z,6.00
2023-05-02T02:59:33.526Z,10.33
2023-05-02T03:02:06.953Z,9.23
2023-05-02T03:04:37.422Z,5.27
2023-05-02T03:07:06.132Z,8.87
2023-05-02T03:09:44.262Z,6.27
2023-05-02T03:12:12.975Z,7.10
2023-05-02T03:14:41.896Z,7.17
2023-05-02T03:17:11.912Z,8.47
2023-05-02T03:19:40.953Z,16.70
2023-05-02T03:22:09.562Z,6.20
2023-05-02T03:24:38.266Z,7.93
2023-05-02T03:27:06.908Z,9.00
2023-05-02T03:29:35.556Z,5.13
2023-05-02T03:32:04.373Z,6.73
2023-05-02T03:34:34.475Z,5.93
2023-05-02T03:37:03.198Z,8.87
2023-05-02T03:39:31.766Z,8.97
2023-05-02T03:42:00.780Z,6.40
2023-05-02T03:44:29.515Z,6.73
2023-05-02T03:46:58.211Z,9.30
2023-05-02T03:49:26.953Z,9.97
2023-05-02T03:51:57.019Z,7.57
2023-05-02T03:54:26.051Z,9.73
2023-05-02T03:56:54.820Z,7.10
2023-05-02T03:59:23.489Z,6.67
2023-05-02T04:01:52.161Z,8.37
2023-05-02T04:04:21.379Z,7.63
2023-05-02T04:06:50.116Z,8.10
2023-05-02T04:09:24.995Z,7.30
2023-05-02T04:11:53.663Z,7.17
2023-05-02T04:14:22.417Z,7.43
2023-05-02T04:16:51.349Z,9.80
2023-05-02T04:19:20.502Z,8.40
2023-05-02T04:21:49.111Z,8.97
2023-05-02T04:24:17.782Z,11.13
2023-05-02T04:26:49.008Z,7.53
2023-05-02T04:29:17.598Z,8.93
2023-05-02T04:31:46.294Z,8.20
2023-05-02T04:34:14.927Z,7.40
2023-05-02T04:36:43.518Z,9.20
2023-05-02T04:39:12.083Z,9.80
2023-05-02T04:41:40.675Z,7.10
2023-05-02T04:44:10.595Z,8.13
2023-05-02T04:46:39.281Z,14.10
2023-05-02T04:49:07.844Z,14.00
2023-05-02T04:51:36.562Z,11.20
2023-05-02T04:54:05.229Z,9.20
2023-05-02T04:56:33.787Z,7.70
2023-05-02T04:59:02.353Z,8.27
2023-05-02T05:01:32.462Z,8.20
2023-05-02T05:04:01.161Z,14.10
2023-05-02T05:06:30.031Z,12.80
2023-05-02T05:08:59.223Z,7.43
2023-05-02T05:11:27.844Z,10.67
2023-05-02T05:13:56.396Z,9.77
2023-05-02T05:16:25.217Z,7.83
2023-05-02T05:18:55.304Z,9.00
2023-05-02T05:21:23.974Z,7.60
2023-05-02T05:23:52.645Z,10.40
2023-05-02T05:26:22.198Z,10.83
2023-05-02T05:28:51.290Z,8.70
2023-05-02T05:31:19.946Z,14.87
2023-05-02T05:33:48.656Z,10.47
2023-05-02T05:36:18.649Z,9.17
2023-05-02T05:38:47.927Z,8.83
2023-05-02T05:41:16.690Z,9.53
2023-05-02T05:43:45.342Z,9.50
2023-05-02T05:46:14.009Z,10.30
2023-05-02T05:48:42.753Z,8.10
2023-05-02T05:51:11.706Z,8.40
2023-05-02T05:53:41.726Z,10.07
2023-05-02T05:56:10.706Z,9.80
2023-05-02T05:58:39.608Z,9.57
2023-05-02T06:01:09.334Z,11.33
2023-05-02T06:03:38.072Z,18.30
2023-05-02T06:06:07.049Z,9.10
2023-05-02T06:08:35.713Z,16.30
2023-05-02T06:11:09.866Z,12.47
2023-05-02T06:13:38.726Z,9.20
2023-05-02T06:16:07.748Z,11.63
2023-05-02T06:18:36.372Z,10.73
2023-05-02T06:21:05.965Z,11.73
2023-05-02T06:23:34.700Z,10.00
2023-05-02T06:26:05.581Z,21.33
2023-05-02T06:28:34.200Z,7.50
2023-05-02T06:31:04.541Z,7.83
2023-05-02T06:33:34.539Z,8.70
2023-05-02T06:36:03.550Z,8.10
2023-05-02T06:38:32.321Z,8.00
2023-05-02T06:41:00.947Z,10.30
2023-05-02T06:43:30.899Z,8.60
2023-05-02T06:45:59.615Z,12.13
2023-05-02T06:48:28.251Z,13.73
2023-05-02T06:50:56.930Z,9.93
2023-05-02T06:53:25.554Z,9.23
2023-05-02T06:55:54.639Z,7.90
2023-05-02T06:58:23.277Z,10.53
2023-05-02T07:00:53.221Z,8.37
2023-05-02T07:03:22.054Z,7.67
2023-05-02T07:05:50.657Z,7.53
2023-05-02T07:08:21.492Z,11.10
2023-05-02T07:10:50.166Z,7.90
2023-05-02T07:13:18.811Z,8.10
2023-05-02T07:15:47.494Z,9.53
2023-05-02T07:18:17.524Z,11.13
2023-05-02T07:20:46.445Z,8.50
2023-05-02T07:23:15.102Z,8.80
2023-05-02T07:25:43.839Z,8.70
2023-05-02T07:28:12.431Z,8.80
2023-05-02T07:30:41.252Z,12.70
2023-05-02T07:33:09.872Z,8.63
2023-05-02T07:35:39.985Z,11.60
2023-05-02T07:38:08.725Z,8.67
2023-05-02T07:40:37.337Z,9.20
2023-05-02T07:43:06.048Z,11.20
2023-05-02T07:45:35.421Z,10.77
2023-05-02T07:48:04.909Z,12.40
2023-05-02T07:50:33.518Z,12.50
2023-05-02T07:53:03.528Z,15.37
2023-05-02T07:55:33.196Z,12.37
2023-05-02T07:58:01.833Z,17.50
2023-05-02T08:00:30.545Z,15.13
2023-05-02T08:02:59.241Z,19.30
2023-05-02T08:05:28.016Z,17.13
2023-05-02T08:07:56.596Z,13.03
2023-05-02T08:10:27.263Z,15.93
2023-05-02T08:12:55.891Z,21.47
2023-05-02T08:15:24.728Z,13.83
2023-05-02T08:17:53.364Z,16.80
2023-05-02T08:20:22.343Z,19.53
2023-05-02T08:22:51.411Z,17.07
2023-05-02T08:25:20.224Z,18.63
2023-05-02T08:27:50.232Z,17.33
2023-05-02T08:30:18.995Z,20.70
2023-05-02T08:32:47.755Z,15.53
2023-05-02T08:35:16.477Z,18.23
2023-05-02T08:37:45.101Z,18.10
2023-05-02T08:40:14.519Z,23.27
2023-05-02T08:42:44.077Z,16.90
2023-05-02T08:45:16.489Z,22.77
2023-05-02T08:47:45.916Z,20.57
2023-05-02T08:50:15.565Z,22.97
2023-05-02T08:52:45.290Z,21.90
2023-05-02T08:55:14.520Z,21.77
2023-05-02T08:57:44.986Z,25.57
2023-05-02T09:00:16.760Z,17.80
2023-05-02T09:02:58.832Z,25.30
2023-05-02T09:05:27.503Z,17.80
2023-05-02T09:07:56.177Z,19.93
2023-05-02T09:10:27.224Z,20.13
2023-05-02T09:12:55.983Z,18.53
2023-05-02T09:15:26.021Z,18.30
2023-05-02T09:17:54.711Z,20.23
2023-05-02T09:20:23.677Z,20.50
2023-05-02T09:22:53.425Z,19.00
2023-05-02T09:25:22.075Z,20.97
2023-05-02T09:27:52.332Z,19.90
2023-05-02T09:30:22.576Z,19.73
2023-05-02T09:32:55.614Z,20.53
2023-05-02T09:35:24.835Z,24.73
2023-05-02T09:37:54.689Z,22.13
2023-05-02T09:40:24.310Z,20.57
2023-05-02T09:42:53.725Z,23.97
2023-05-02T09:45:23.769Z,16.80
2023-05-02T09:47:54.282Z,20.40
2023-05-02T09:50:36.729Z,19.17
2023-05-02T09:53:06.442Z,20.30
2023-05-02T09:55:35.194Z,22.07
2023-05-02T09:58:04.041Z,18.33
2023-05-02T10:00:43.255Z,20.33
2023-05-02T10:03:17.153Z,18.50
2023-05-02T10:05:46.754Z,18.97
2023-05-02T10:08:15.647Z,15.63
2023-05-02T10:10:48.050Z,14.57
2023-05-02T10:13:18.353Z,16.80
2023-05-02T10:15:47.244Z,19.30
2023-05-02T10:18:22.972Z,17.53
2023-05-02T10:20:58.248Z,16.30
2023-05-02T10:23:28.627Z,17.50
2023-05-02T10:26:01.492Z,17.30
2023-05-02T10:28:31.186Z,18.37
2023-05-02T10:31:02.868Z,19.03
2023-05-02T10:33:35.295Z,17.00
2023-05-02T10:36:04.588Z,14.87
2023-05-02T10:38:33.635Z,14.67
2023-05-02T10:41:03.915Z,21.50
2023-05-02T10:43:33.827Z,15.93
2023-05-02T10:46:03.527Z,15.77
2023-05-02T10:48:33.473Z,12.40
2023-05-02T10:51:02.361Z,16.13
2023-05-02T10:53:32.538Z,20.50
2023-05-02T10:56:13.049Z,19.10
2023-05-02T10:58:42.074Z,16.47
2023-05-02T11:01:37.868Z,15.60
2023-05-02T11:04:09.398Z,15.13
2023-05-02T11:06:39.761Z,13.17
2023-05-02T11:09:34.077Z,12.13
2023-05-02T11:12:04.885Z,19.67
2023-05-02T11:14:48.592Z,12.40
2023-05-02T11:17:20.999Z,19.50
2023-05-02T11:20:21.386Z,12.67
2023-05-02T11:22:50.907Z,14.27
2023-05-02T11:25:43.452Z,18.73
2023-05-02T11:28:43.341Z,14.63
2023-05-02T11:32:02.266Z,14.10
2023-05-02T11:34:43.440Z,14.83
2023-05-02T11:37:13.534Z,16.53
2023-05-02T11:39:42.241Z,13.83
2023-05-02T11:42:10.936Z,16.00
2023-05-02T11:44:59.262Z,11.77
2023-05-02T11:47:29.685Z,15.73
2023-05-02T11:50:00.774Z,15.90
2023-05-02T11:52:30.740Z,13.30
2023-05-02T11:54:59.681Z,14.27
2023-05-02T11:57:28.543Z,14.53
2023-05-02T11:59:58.615Z,16.63
2023-05-02T12:02:37.803Z,13.60
2023-05-02T12:05:09.925Z,10.33
2023-05-02T12:07:39.048Z,14.97
2023-05-02T12:10:09.080Z,11.43
2023-05-02T12:12:39.067Z,14.40
2023-05-02T12:15:09.584Z,12.43
2023-05-02T12:17:40.933Z,14.17
2023-05-02T12:20:12.427Z,14.20
2023-05-02T12:22:41.088Z,18.67
2023-05-02T12:25:10.103Z,13.10
2023-05-02T12:27:38.826Z,13.00
2023-05-02T12:30:08.814Z,15.67
2023-05-02T12:32:38.658Z,14.40
2023-05-02T12:35:23.827Z,18.30
2023-05-02T12:37:53.462Z,21.00
2023-05-02T12:40:22.397Z,12.93
2023-05-02T12:43:03.975Z,15.43
2023-05-02T12:45:34.342Z,22.30
2023-05-02T12:48:07.904Z,21.30
2023-05-02T12:50:39.087Z,17.40
2023-05-02T12:53:07.720Z,15.73
2023-05-02T12:55:36.884Z,17.60
2023-05-02T12:58:06.960Z,18.50
2023-05-02T13:00:37.787Z,19.37
2023-05-02T13:03:07.198Z,18.77
2023-05-02T13:05:36.479Z,19.70
2023-05-02T13:08:07.144Z,17.60
2023-05-02T13:10:35.853Z,16.93
2023-05-02T13:13:04.616Z,15.23
2023-05-02T13:15:33.361Z,15.23
2023-05-02T13:18:02.161Z,20.20
2023-05-02T13:20:31.338Z,17.17
2023-05-02T13:22:59.927Z,16.90
2023-05-02T13:25:30.333Z,16.33
2023-05-02T13:27:59.619Z,14.20
2023-05-02T13:30:28.354Z,16.80
2023-05-02T13:32:58.333Z,19.27
2023-05-02T13:35:26.995Z,21.03
2023-05-02T13:37:55.549Z,20.17
2023-05-02T13:40:24.183Z,19.67
2023-05-02T13:42:54.211Z,18.50
2023-05-02T13:45:23.015Z,18.23
2023-05-02T13:47:51.715Z,17.40
2023-05-02T13:50:21.016Z,21.33
2023-05-02T13:52:49.680Z,17.10
2023-05-02T13:55:18.379Z,20.33
2023-05-02T13:57:47.060Z,17.73
2023-05-02T14:00:17.866Z,17.02
2023-05-02T14:02:48.650Z,17.20
2023-05-02T14:05:17.447Z,18.13
2023-05-02T14:07:46.310Z,14.10
2023-05-02T14:10:15.019Z,15.33
2023-05-02T14:12:43.672Z,17.27
2023-05-02T14:15:13.060Z,14.53
2023-05-02T14:17:43.053Z,14.20
2023-05-02T14:20:12.488Z,17.53
2023-05-02T14:22:41.559Z,14.70
2023-05-02T14:25:10.519Z,14.83
2023-05-02T14:27:39.249Z,12.13
2023-05-02T14:30:09.299Z,17.27
2023-05-02T14:32:37.991Z,17.03
2023-05-02T14:35:08.988Z,17.10
2023-05-02T14:37:37.660Z,14.27
2023-05-02T14:40:07.673Z,12.90
2023-05-02T14:42:36.548Z,13.53
2023-05-02T14:45:06.202Z,12.10
2023-05-02T14:47:34.860Z,12.00
2023-05-02T14:50:04.575Z,13.90
2023-05-02T14:52:34.901Z,12.17
2023-05-02T14:55:04.422Z,10.80
2023-05-02T14:57:33.677Z,7.80
2023-05-02T15:00:02.703Z,10.57
2023-05-02T15:02:31.705Z,8.70
2023-05-02T15:05:00.500Z,8.30
2023-05-02T15:07:29.208Z,8.57
2023-05-02T15:09:59.223Z,6.30
2023-05-02T15:12:27.912Z,7.33
2023-05-02T15:14:56.508Z,8.03
2023-05-02T15:17:25.121Z,12.60
2023-05-02T15:19:54.231Z,10.50
2023-05-02T15:22:26.027Z,11.30
2023-05-02T15:24:55.414Z,7.10
2023-05-02T15:27:25.483Z,10.33
2023-05-02T15:29:54.135Z,10.43
2023-05-02T15:32:23.087Z,9.10
2023-05-02T15:34:51.809Z,9.80
2023-05-02T15:37:20.536Z,11.70
2023-05-02T15:39:50.513Z,8.30
2023-05-02T15:42:19.133Z,9.37
2023-05-02T15:44:49.996Z,7.33
2023-05-02T15:47:19.587Z,8.13
2023-05-02T15:49:53.683Z,5.67
2023-05-02T15:52:22.799Z,6.30
2023-05-02T15:54:51.812Z,6.37
2023-05-02T15:57:21.264Z,4.97
2023-05-02T15:59:52.037Z,5.10
2023-05-02T16:02:21.692Z,6.47
2023-05-02T16:04:50.324Z,7.07
2023-05-02T16:07:18.967Z,4.90
2023-05-02T16:09:47.591Z,5.70
2023-05-02T16:12:16.175Z,4.73
2023-05-02T16:14:44.839Z,7.33
2023-05-02T16:17:14.862Z,6.50
2023-05-02T16:19:43.539Z,6.93
2023-05-02T16:22:12.233Z,6.93
2023-05-02T16:24:41.244Z,4.63
2023-05-02T16:27:09.947Z,7.87
2023-05-02T16:29:38.727Z,5.80
2023-05-02T16:32:08.267Z,6.30
2023-05-02T16:34:38.270Z,5.33
2023-05-02T16:37:06.844Z,7.47
2023-05-02T16:39:35.953Z,5.87
2023-05-02T16:42:05.540Z,6.30
2023-05-02T16:44:34.284Z,8.13
2023-05-02T16:47:02.930Z,12.07
2023-05-02T16:49:31.770Z,6.00
2023-05-02T16:52:01.795Z,8.07
2023-05-02T16:54:30.412Z,6.80
2023-05-02T16:57:02.504Z,8.80
2023-05-02T16:59:31.137Z,6.10
2023-05-02T17:01:59.863Z,6.10
2023-05-02T17:04:28.536Z,5.77
2023-05-02T17:06:57.177Z,5.43
2023-05-02T17:09:27.153Z,5.37
2023-05-02T17:11:56.070Z,4.17
2023-05-02T17:14:24.719Z,5.47
2023-05-02T17:16:53.396Z,3.93
2023-05-02T17:19:22.197Z,5.87
2023-05-02T17:21:50.853Z,4.23
2023-05-02T17:24:19.498Z,4.13
2023-05-02T17:26:49.713Z,3.60
2023-05-02T17:29:18.534Z,3.00
2023-05-02T17:31:47.234Z,5.97
2023-05-02T17:34:15.821Z,3.60
2023-05-02T17:36:44.673Z,3.63
2023-05-02T17:39:15.585Z,3.47
2023-05-02T17:41:44.189Z,4.23
2023-05-02T17:44:14.132Z,4.10
2023-05-02T17:46:42.957Z,3.60
2023-05-02T17:49:11.737Z,2.70
2023-05-02T17:51:40.391Z,4.20
2023-05-02T17:54:09.094Z,4.63
2023-05-02T17:56:38.134Z,3.40
2023-05-02T17:59:06.829Z,4.07
2023-05-02T18:01:36.837Z,3.80
2023-05-02T18:04:05.703Z,2.40
2023-05-02T18:06:34.468Z,2.83
2023-05-02T18:09:03.435Z,2.27
2023-05-02T18:11:32.081Z,8.13
2023-05-02T18:14:03.555Z,4.00
2023-05-02T18:16:34.166Z,3.37
2023-05-02T18:19:04.236Z,7.13
2023-05-02T18:21:35.335Z,4.30
2023-05-02T18:24:04.164Z,4.30
2023-05-02T18:26:32.794Z,2.93
2023-05-02T18:29:01.464Z,4.00
2023-05-02T18:31:30.957Z,3.93
2023-05-02T18:33:59.658Z,7.00
2023-05-02T18:36:29.974Z,4.13
2023-05-02T18:39:00.203Z,6.13
2023-05-02T18:41:28.839Z,6.50
2023-05-02T18:43:58.765Z,6.23
2023-05-02T18:46:29.253Z,7.13
2023-05-02T18:48:58.021Z,7.00
2023-05-02T18:51:29.035Z,6.27
2023-05-02T18:53:59.081Z,4.53
2023-05-02T18:56:28.112Z,5.03
2023-05-02T18:58:56.958Z,6.63
2023-05-02T19:01:26.184Z,5.43
2023-05-02T19:03:55.120Z,6.50
2023-05-02T19:06:24.460Z,4.43
2023-05-02T19:08:53.666Z,8.60
2023-05-02T19:11:23.709Z,5.13
2023-05-02T19:13:52.340Z,7.60
2023-05-02T19:16:25.537Z,4.70
2023-05-02T19:18:55.884Z,6.20
2023-05-02T19:21:24.854Z,6.93
2023-05-02T19:23:53.658Z,5.97
2023-05-02T19:26:23.698Z,6.90
2023-05-02T19:28:52.322Z,4.77
2023-05-02T19:31:23.440Z,5.67
2023-05-02T19:33:52.311Z,8.00
2023-05-02T19:36:22.430Z,10.87
2023-05-02T19:38:52.225Z,9.70
2023-05-02T19:41:22.049Z,13.47
2023-05-02T19:43:52.142Z,17.53
2023-05-02T19:46:21.019Z,13.67
2023-05-02T19:48:49.754Z,9.57
2023-05-02T19:51:25.149Z,7.40
2023-05-02T19:53:53.957Z,5.63
2023-05-02T19:56:25.335Z,9.00
2023-05-02T19:58:56.658Z,8.53
2023-05-02T20:01:26.297Z,4.73
2023-05-02T20:03:55.559Z,6.50
2023-05-02T20:06:24.558Z,4.87
2023-05-02T20:08:53.311Z,4.27
2023-05-02T20:11:22.205Z,5.43
2023-05-02T20:13:50.915Z,4.73
2023-05-02T20:16:21.101Z,7.90
2023-05-02T20:18:49.782Z,4.17
2023-05-02T20:21:18.441Z,5.43
2023-05-02T20:23:47.101Z,7.40
2023-05-02T20:26:17.236Z,6.53
2023-05-02T20:28:45.866Z,5.63
2023-05-02T20:31:14.721Z,5.30
2023-05-02T20:33:46.040Z,4.63
2023-05-02T20:36:15.780Z,4.73
2023-05-02T20:38:44.996Z,5.30
2023-05-02T20:41:14.118Z,4.40
2023-05-02T20:43:44.653Z,4.70
2023-05-02T20:46:16.087Z,4.83
2023-05-02T20:48:46.314Z,4.47
2023-05-02T20:51:17.124Z,4.83
2023-05-02T20:53:45.767Z,4.70
2023-05-02T20:56:14.477Z,4.47
2023-05-02T20:58:43.137Z,5.50
2023-05-02T21:01:12.091Z,6.00
2023-05-02T21:03:41.218Z,5.73
2023-05-02T21:06:11.452Z,5.90
2023-05-02T21:08:40.190Z,8.03
2023-05-02T21:11:15.410Z,12.50
2023-05-02T21:13:44.838Z,9.10
2023-05-02T21:16:17.449Z,7.30
2023-05-02T21:18:47.813Z,6.90
2023-05-02T21:21:17.818Z,4.23
2023-05-02T21:23:46.563Z,5.20
2023-05-02T21:26:15.232Z,5.87
2023-05-02T21:28:43.887Z,5.90
2023-05-02T21:31:12.669Z,5.40
2023-05-02T21:33:41.923Z,6.27
2023-05-02T21:36:11.426Z,5.13
2023-05-02T21:38:41.475Z,7.67
2023-05-02T21:41:10.171Z,7.20
2023-05-02T21:43:40.030Z,5.90
2023-05-02T21:46:08.658Z,5.50
2023-05-02T21:48:37.317Z,5.37
2023-05-02T21:51:09.000Z,4.90
2023-05-02T21:53:37.943Z,6.53
2023-05-02T21:56:09.102Z,5.30
2023-05-02T21:58:37.807Z,12.83
2023-05-02T22:01:06.641Z,8.50
2023-05-02T22:03:36.629Z,5.93
2023-05-02T22:06:06.387Z,6.10
2023-05-02T22:08:36.186Z,7.30
2023-05-02T22:11:09.480Z,6.20
2023-05-02T22:13:38.382Z,5.67
2023-05-02T22:16:08.053Z,7.90
2023-05-02T22:18:36.976Z,6.53
2023-05-02T22:21:08.056Z,5.97
2023-05-02T22:23:36.821Z,4.87
2023-05-02T22:26:05.438Z,6.00
2023-05-02T22:28:36.190Z,4.20
2023-05-02T22:31:05.203Z,5.23
2023-05-02T22:33:33.986Z,8.70
2023-05-02T22:36:02.576Z,7.20
2023-05-02T22:38:31.178Z,7.63
2023-05-02T22:40:59.845Z,6.40
2023-05-02T22:43:28.457Z,7.50
2023-05-02T22:45:58.939Z,7.00
2023-05-02T22:48:27.647Z,5.00
2023-05-02T22:50:56.294Z,4.87
2023-05-02T22:53:26.018Z,5.67
2023-05-02T22:55:54.630Z,6.97
2023-05-02T22:58:23.293Z,4.33
2023-05-02T23:00:51.934Z,5.13
2023-05-02T23:03:22.358Z,7.83
2023-05-02T23:05:51.089Z,5.13
2023-05-02T23:08:19.697Z,4.13
2023-05-02T23:10:48.304Z,5.63
2023-05-02T23:13:16.949Z,4.03
2023-05-02T23:15:45.626Z,5.30
2023-05-02T23:18:14.307Z,4.53
2023-05-02T23:20:44.255Z,4.40
2023-05-02T23:23:13.025Z,3.90
2023-05-02T23:25:41.605Z,4.10
2023-05-02T23:28:10.268Z,3.60
2023-05-02T23:30:39.360Z,2.80
2023-05-02T23:33:08.129Z,7.20
2023-05-02T23:35:36.911Z,3.27
2023-05-02T23:38:07.806Z,6.47
2023-05-02T23:40:36.635Z,6.30
2023-05-02T23:43:07.380Z,4.03
2023-05-02T23:45:36.041Z,3.10
2023-05-02T23:48:04.913Z,3.10
2023-05-02T23:50:33.688Z,3.33
2023-05-02T23:53:02.309Z,3.60
2023-05-02T23:55:32.896Z,3.90
2023-05-02T23:58:01.535Z,4.57
